Time;durP1;ratioP1;P1;durP2;ratioP2;P2;SDS_P1;SDS_P2;PMS_P1;PMS_P2;Temp;Humidity;BMP_temperature;BMP_pressure;BME280_temperature;BME280_humidity;BME280_pressure;Samples;Min_cycle;Max_cycle;Signal;HPM_P1;HPM_P2
2021/09/13 00:00:02;;;;;;;12.70;10.63;;;14.20;99.90;;;;;;5014278;28;20732;-92
2021/09/13 00:02:30;;;;;;;12.67;10.63;;;14.20;99.90;;;;;;5017496;28;20204;-92
2021/09/13 00:04:57;;;;;;;11.93;9.83;;;14.10;99.90;;;;;;5016679;28;20220;-91
2021/09/13 00:07:24;;;;;;;12.77;11.30;;;14.00;99.90;;;;;;5014444;28;20871;-92
2021/09/13 00:09:51;;;;;;;12.00;10.50;;;14.00;99.90;;;;;;5010911;28;20557;-92
2021/09/13 00:12:18;;;;;;;12.13;10.37;;;14.10;99.90;;;;;;5021398;28;20212;-93
2021/09/13 00:14:45;;;;;;;12.50;10.80;;;13.90;99.90;;;;;;5026165;28;20229;-93
2021/09/13 00:17:14;;;;;;;13.00;10.50;;;13.80;99.90;;;;;;5027277;28;20244;-94
2021/09/13 00:19:41;;;;;;;13.03;11.23;;;13.70;99.90;;;;;;5026022;28;20256;-90
2021/09/13 00:22:08;;;;;;;14.67;10.87;;;13.80;99.90;;;;;;5016829;28;20235;-93
2021/09/13 00:24:35;;;;;;;13.33;11.33;;;13.70;99.90;;;;;;5018537;28;20296;-93
2021/09/13 00:27:02;;;;;;;13.93;12.13;;;13.90;99.90;;;;;;5014255;28;20258;-93
2021/09/13 00:29:29;;;;;;;15.77;12.13;;;13.90;99.90;;;;;;5015206;28;20215;-92
2021/09/13 00:31:56;;;;;;;14.67;12.27;;;13.80;99.90;;;;;;5013948;28;20688;-93
2021/09/13 00:34:24;;;;;;;16.23;12.70;;;14.00;99.90;;;;;;5017441;28;20209;-92
2021/09/13 00:36:52;;;;;;;14.60;12.30;;;14.10;99.90;;;;;;5019645;28;20224;-92
2021/09/13 00:39:19;;;;;;;16.77;12.33;;;14.20;99.90;;;;;;5019113;28;20224;-93
2021/09/13 00:41:46;;;;;;;12.90;11.53;;;14.30;99.90;;;;;;5014873;28;20233;-92
2021/09/13 00:44:16;;;;;;;16.30;12.20;;;14.20;99.90;;;;;;5015755;28;20235;-92
2021/09/13 00:46:43;;;;;;;15.70;12.27;;;14.40;99.90;;;;;;5017191;28;20279;-91
2021/09/13 00:49:10;;;;;;;15.00;12.67;;;14.40;99.90;;;;;;5015947;28;20770;-92
2021/09/13 00:51:38;;;;;;;16.00;12.17;;;14.30;99.90;;;;;;5016309;28;20272;-92
2021/09/13 00:54:05;;;;;;;13.43;11.43;;;14.40;99.90;;;;;;5015139;28;20243;-93
2021/09/13 00:56:33;;;;;;;16.20;11.93;;;14.40;99.90;;;;;;5018459;28;20235;-93
2021/09/13 00:59:00;;;;;;;13.83;11.30;;;14.40;99.90;;;;;;5014030;28;20216;-92
2021/09/13 01:01:27;;;;;;;17.17;12.03;;;14.50;99.90;;;;;;5020432;28;20220;-93
2021/09/13 01:03:54;;;;;;;13.30;11.20;;;14.60;99.90;;;;;;5022883;28;20228;-92
2021/09/13 01:06:21;;;;;;;16.07;11.27;;;14.50;99.90;;;;;;5017075;28;20201;-93
2021/09/13 01:08:50;;;;;;;12.60;11.03;;;14.40;99.90;;;;;;5018809;28;20208;-92
2021/09/13 01:11:18;;;;;;;13.93;11.50;;;14.40;99.90;;;;;;5009770;28;20649;-92
2021/09/13 01:13:45;;;;;;;14.33;11.40;;;14.50;99.90;;;;;;5015642;28;20584;-92
2021/09/13 01:16:12;;;;;;;14.23;11.37;;;14.30;99.90;;;;;;5012776;28;20251;-91
2021/09/13 01:18:39;;;;;;;14.10;11.60;;;14.30;99.90;;;;;;5012735;28;20243;-92
2021/09/13 01:21:06;;;;;;;12.67;11.07;;;14.40;99.90;;;;;;5020339;28;20212;-93
2021/09/13 01:23:37;;;;;;;13.97;11.70;;;14.50;99.90;;;;;;5015612;28;20211;-91
2021/09/13 01:26:06;;;;;;;16.03;12.00;;;14.30;99.90;;;;;;5013844;28;20239;-92
2021/09/13 01:28:33;;;;;;;16.70;11.60;;;14.20;99.90;;;;;;5014197;28;20244;-92
2021/09/13 01:31:00;;;;;;;16.90;12.50;;;14.20;99.90;;;;;;5016395;28;20276;-92
2021/09/13 01:33:28;;;;;;;14.13;11.30;;;14.30;99.90;;;;;;5013493;28;20215;-92
2021/09/13 01:35:55;;;;;;;13.37;11.27;;;14.20;99.90;;;;;;5022366;28;20235;-93
2021/09/13 01:38:24;;;;;;;16.60;12.47;;;14.20;99.90;;;;;;5017290;28;20259;-93
2021/09/13 01:40:53;;;;;;;15.23;12.10;;;14.10;99.90;;;;;;5012791;28;20258;-93
2021/09/13 01:43:21;;;;;;;15.30;12.23;;;14.10;99.90;;;;;;5014163;28;20299;-92
2021/09/13 01:45:48;;;;;;;15.57;12.40;;;14.00;99.90;;;;;;5014862;28;20262;-92
2021/09/13 01:48:15;;;;;;;17.13;12.93;;;14.00;99.90;;;;;;5016350;28;20259;-93
2021/09/13 01:50:43;;;;;;;15.23;12.93;;;13.80;99.90;;;;;;5015239;28;20215;-92
2021/09/13 01:53:10;;;;;;;16.93;13.07;;;13.70;99.90;;;;;;5007551;28;20297;-93
2021/09/13 01:55:37;;;;;;;17.53;14.00;;;13.70;99.90;;;;;;5013598;28;20227;-93
2021/09/13 01:58:05;;;;;;;17.57;12.90;;;13.60;99.90;;;;;;5014380;28;20319;-91
2021/09/13 02:00:32;;;;;;;18.57;12.97;;;13.80;99.90;;;;;;5012909;28;20307;-93
2021/09/13 02:02:59;;;;;;;17.47;13.23;;;13.70;99.90;;;;;;5007447;28;20237;-92
2021/09/13 02:05:26;;;;;;;15.93;13.10;;;13.60;99.90;;;;;;5009375;28;20673;-92
2021/09/13 02:07:53;;;;;;;15.73;13.33;;;13.80;99.90;;;;;;5009597;28;20604;-91
2021/09/13 02:10:20;;;;;;;15.77;13.17;;;13.80;99.90;;;;;;5016856;28;20200;-92
2021/09/13 02:12:47;;;;;;;16.37;12.73;;;13.70;99.90;;;;;;5015750;28;20204;-92
2021/09/13 02:15:16;;;;;;;15.93;12.97;;;13.70;99.90;;;;;;5016002;28;20250;-92
2021/09/13 02:17:44;;;;;;;15.47;13.43;;;13.50;99.90;;;;;;5015826;28;20291;-92
2021/09/13 02:20:12;;;;;;;15.83;12.40;;;13.50;99.90;;;;;;5010426;28;20205;-92
2021/09/13 02:22:40;;;;;;;17.33;13.43;;;13.60;99.90;;;;;;5013327;28;20251;-92
2021/09/13 02:25:08;;;;;;;17.07;12.40;;;13.50;99.90;;;;;;5010625;28;20239;-92
2021/09/13 02:27:35;;;;;;;17.37;12.93;;;13.50;99.90;;;;;;5014897;28;20310;-93
2021/09/13 02:30:02;;;;;;;18.10;13.27;;;13.40;99.90;;;;;;5015932;28;20224;-92
2021/09/13 02:32:31;;;;;;;16.83;12.23;;;13.40;99.90;;;;;;5017308;28;20232;-92
2021/09/13 02:35:04;;;;;;;15.17;12.10;;;13.40;99.90;;;;;;5019034;28;20229;-93
2021/09/13 02:37:31;;;;;;;14.67;12.60;;;13.30;99.90;;;;;;5017612;28;20318;-93
2021/09/13 02:39:58;;;;;;;16.17;13.30;;;13.20;99.90;;;;;;5021785;28;20208;-92
2021/09/13 02:42:25;;;;;;;16.63;13.87;;;13.30;99.90;;;;;;5018441;28;20247;-92
2021/09/13 02:44:52;;;;;;;15.23;12.37;;;13.30;99.90;;;;;;5020103;28;20234;-93
2021/09/13 02:47:19;;;;;;;15.73;13.13;;;13.30;99.90;;;;;;5015242;28;20220;-93
2021/09/13 02:49:47;;;;;;;17.57;13.07;;;13.30;99.90;;;;;;5015990;28;20585;-93
2021/09/13 02:52:15;;;;;;;15.83;12.83;;;13.20;99.90;;;;;;5016662;28;20685;-93
2021/09/13 02:54:42;;;;;;;14.97;12.73;;;13.30;99.90;;;;;;5017163;28;20232;-92
2021/09/13 02:57:09;;;;;;;18.53;13.67;;;13.20;99.90;;;;;;5013833;28;20251;-92
2021/09/13 02:59:36;;;;;;;16.17;12.90;;;13.30;99.90;;;;;;5016375;28;20261;-93
2021/09/13 03:02:04;;;;;;;14.73;12.47;;;13.20;99.90;;;;;;5020411;28;20220;-92
2021/09/13 03:04:31;;;;;;;16.30;13.57;;;13.20;99.90;;;;;;5025058;28;20259;-93
2021/09/13 03:07:00;;;;;;;19.23;14.43;;;13.20;99.90;;;;;;5019360;28;20232;-93
2021/09/13 03:09:27;;;;;;;15.63;13.30;;;13.20;99.90;;;;;;5022439;28;20228;-93
2021/09/13 03:11:53;;;;;;;17.47;13.73;;;13.20;99.90;;;;;;5020750;28;20258;-93
2021/09/13 03:14:21;;;;;;;16.53;13.20;;;13.00;99.90;;;;;;5020265;28;20222;-93
2021/09/13 03:16:50;;;;;;;17.07;13.03;;;13.00;99.90;;;;;;5019708;28;20286;-92
2021/09/13 03:19:17;;;;;;;17.20;13.83;;;12.90;99.90;;;;;;5013957;28;20219;-92
2021/09/13 03:21:44;;;;;;;20.43;14.10;;;13.00;99.90;;;;;;5013121;28;20224;-92
2021/09/13 03:24:13;;;;;;;18.47;13.60;;;13.10;99.90;;;;;;5012716;28;20292;-91
2021/09/13 03:26:40;;;;;;;16.13;14.30;;;13.00;99.90;;;;;;5014332;28;20232;-92
2021/09/13 03:29:07;;;;;;;16.03;13.50;;;13.00;99.90;;;;;;5014240;28;20673;-92
2021/09/13 03:31:37;;;;;;;16.67;14.17;;;12.90;99.90;;;;;;5014817;28;20207;-92
2021/09/13 03:34:08;;;;;;;17.27;14.17;;;12.80;99.90;;;;;;5012518;28;20211;-90
2021/09/13 03:36:39;;;;;;;16.93;13.83;;;12.60;99.90;;;;;;5001439;28;20208;-89
2021/09/13 03:39:07;;;;;;;18.40;14.40;;;12.70;99.90;;;;;;5012591;28;20204;-90
2021/09/13 03:41:35;;;;;;;17.97;13.70;;;12.70;99.90;;;;;;5013785;28;20216;-90
2021/09/13 03:44:03;;;;;;;18.90;15.47;;;12.70;99.90;;;;;;5008514;28;20211;-90
2021/09/13 03:46:30;;;;;;;21.43;16.77;;;12.90;99.90;;;;;;5003182;28;20216;-90
2021/09/13 03:48:57;;;;;;;18.53;15.20;;;12.70;99.90;;;;;;5013626;28;20291;-90
2021/09/13 03:51:24;;;;;;;20.10;14.73;;;12.60;99.90;;;;;;5013484;28;20279;-91
2021/09/13 03:53:51;;;;;;;29.90;24.53;;;12.70;99.90;;;;;;5013660;28;20208;-90
2021/09/13 03:56:17;;;;;;;19.27;15.97;;;12.50;99.90;;;;;;5013927;28;20755;-91
2021/09/13 03:58:46;;;;;;;19.33;15.73;;;12.70;99.90;;;;;;5012921;28;20304;-90
2021/09/13 04:01:13;;;;;;;18.67;13.60;;;12.70;99.90;;;;;;5015148;28;20212;-92
2021/09/13 04:03:46;;;;;;;18.93;15.47;;;12.60;99.90;;;;;;5014709;28;20311;-93
2021/09/13 04:06:21;;;;;;;20.50;15.00;;;12.60;99.90;;;;;;5026916;28;20203;-92
2021/09/13 04:11:38;;;;;;;18.50;14.73;;;12.50;99.90;;;;;;4989688;28;20251;-92
2021/09/13 04:14:06;;;;;;;19.83;14.20;;;12.60;99.90;;;;;;5035549;28;20204;-92
2021/09/13 04:16:33;;;;;;;19.77;14.80;;;12.50;99.90;;;;;;5027786;28;20263;-92
2021/09/13 04:19:00;;;;;;;19.60;14.57;;;12.50;99.90;;;;;;5023049;28;20275;-92
2021/09/13 04:21:30;;;;;;;21.20;15.90;;;12.40;99.90;;;;;;5022167;28;20220;-92
2021/09/13 04:23:57;;;;;;;20.53;15.97;;;12.50;99.90;;;;;;5018671;28;20246;-90
2021/09/13 04:26:24;;;;;;;18.07;15.23;;;12.60;99.90;;;;;;5021255;28;20571;-92
2021/09/13 04:28:52;;;;;;;19.90;15.53;;;12.60;99.90;;;;;;5023348;28;20204;-93
2021/09/13 04:31:20;;;;;;;18.97;14.67;;;12.50;99.90;;;;;;5026792;28;20224;-89
2021/09/13 04:33:47;;;;;;;21.30;15.57;;;12.60;99.90;;;;;;5010285;28;20670;-90
2021/09/13 04:36:14;;;;;;;22.70;14.40;;;12.50;99.90;;;;;;5002377;28;20236;-91
2021/09/13 04:38:41;;;;;;;18.87;14.83;;;12.50;99.90;;;;;;5013510;28;20232;-90
2021/09/13 04:41:08;;;;;;;20.17;16.07;;;12.60;99.90;;;;;;5006896;28;20262;-91
2021/09/13 04:43:35;;;;;;;18.30;14.10;;;12.60;99.90;;;;;;5009312;28;20335;-91
2021/09/13 04:46:02;;;;;;;21.23;15.90;;;12.60;99.90;;;;;;5009191;28;20315;-91
2021/09/13 04:48:30;;;;;;;19.80;15.60;;;12.60;99.90;;;;;;5012467;28;20252;-90
2021/09/13 04:50:57;;;;;;;21.53;15.13;;;12.60;99.90;;;;;;5009395;28;20205;-90
2021/09/13 04:53:24;;;;;;;22.33;15.93;;;12.60;99.90;;;;;;5008228;28;20609;-91
2021/09/13 04:55:51;;;;;;;18.87;15.10;;;12.60;99.90;;;;;;5010082;28;20745;-91
2021/09/13 04:58:18;;;;;;;19.30;15.50;;;12.70;99.90;;;;;;4999049;28;20327;-91
2021/09/13 05:00:45;;;;;;;21.57;17.53;;;12.60;99.90;;;;;;4998703;28;20303;-92
2021/09/13 05:03:11;;;;;;;19.07;14.73;;;12.60;99.90;;;;;;5006149;28;20588;-91
2021/09/13 05:05:40;;;;;;;18.13;14.77;;;12.50;99.90;;;;;;5011414;28;20204;-91
2021/09/13 05:08:07;;;;;;;20.10;16.50;;;12.50;99.90;;;;;;5007944;28;20693;-91
2021/09/13 05:10:34;;;;;;;19.57;14.87;;;12.50;99.90;;;;;;5012214;28;20557;-91
2021/09/13 05:13:01;;;;;;;20.57;14.73;;;12.60;99.90;;;;;;5011824;28;20203;-92
2021/09/13 05:15:28;;;;;;;17.63;13.77;;;12.60;99.90;;;;;;5012865;28;20677;-92
2021/09/13 05:17:55;;;;;;;18.87;15.13;;;12.60;99.90;;;;;;5010634;28;20244;-93
2021/09/13 05:20:22;;;;;;;20.50;14.90;;;12.70;99.90;;;;;;5016510;28;20227;-92
2021/09/13 05:22:50;;;;;;;19.13;14.23;;;12.60;99.90;;;;;;5030189;28;20231;-90
2021/09/13 05:25:23;;;;;;;19.20;14.47;;;12.70;99.90;;;;;;5028460;28;20207;-93
2021/09/13 05:27:51;;;;;;;19.57;14.80;;;12.60;99.90;;;;;;5027423;28;20212;-90
2021/09/13 05:30:18;;;;;;;18.30;14.40;;;12.80;99.90;;;;;;5016422;28;20208;-91
2021/09/13 05:32:46;;;;;;;18.60;14.60;;;12.80;99.90;;;;;;5018509;28;20488;-91
2021/09/13 05:35:13;;;;;;;19.87;14.93;;;12.80;99.90;;;;;;5017211;28;20207;-90
2021/09/13 05:37:40;;;;;;;20.83;15.27;;;12.80;99.90;;;;;;5002525;28;20239;-89
2021/09/13 05:40:09;;;;;;;18.53;14.80;;;12.90;99.90;;;;;;5011829;28;20235;-90
2021/09/13 05:42:37;;;;;;;20.33;15.47;;;13.00;99.90;;;;;;5012015;28;20315;-90
2021/09/13 05:45:04;;;;;;;20.30;15.67;;;13.00;99.90;;;;;;5008816;28;20582;-90
2021/09/13 05:47:32;;;;;;;21.83;16.27;;;13.00;99.90;;;;;;5009809;28;20255;-90
2021/09/13 05:50:00;;;;;;;22.00;15.70;;;13.10;99.90;;;;;;5008276;28;20204;-90
2021/09/13 05:52:27;;;;;;;19.00;15.20;;;13.10;99.90;;;;;;5009747;28;20205;-90
2021/09/13 05:54:54;;;;;;;20.87;15.33;;;13.20;99.90;;;;;;5012620;28;20208;-89
2021/09/13 05:57:22;;;;;;;21.90;15.30;;;13.20;99.90;;;;;;5011842;28;20242;-90
2021/09/13 05:59:50;;;;;;;19.30;15.33;;;13.30;99.90;;;;;;5013273;28;20205;-90
2021/09/13 06:02:17;;;;;;;21.17;16.03;;;13.40;99.90;;;;;;5012049;28;20295;-90
2021/09/13 06:04:51;;;;;;;19.97;15.13;;;13.40;99.90;;;;;;5013474;28;20196;-90
2021/09/13 06:07:17;;;;;;;20.10;14.70;;;13.60;99.90;;;;;;5013350;28;20665;-90
2021/09/13 06:09:46;;;;;;;19.20;14.40;;;13.60;99.90;;;;;;5012885;28;20228;-89
2021/09/13 06:12:14;;;;;;;18.40;14.37;;;13.80;99.90;;;;;;5014834;28;20283;-90
2021/09/13 06:14:43;;;;;;;18.30;13.37;;;13.80;99.90;;;;;;5013232;28;20263;-90
2021/09/13 06:17:10;;;;;;;20.17;14.00;;;13.80;99.90;;;;;;5012968;28;20262;-90
2021/09/13 06:19:37;;;;;;;18.77;13.33;;;13.80;99.90;;;;;;5012812;28;20196;-90
2021/09/13 06:22:05;;;;;;;18.13;13.70;;;13.90;99.90;;;;;;5005273;28;20315;-90
2021/09/13 06:24:32;;;;;;;19.23;12.77;;;13.80;99.90;;;;;;5008142;28;20196;-90
2021/09/13 06:26:59;;;;;;;17.77;12.77;;;13.90;99.90;;;;;;5011469;28;20227;-89
2021/09/13 06:29:26;;;;;;;18.67;12.23;;;14.00;99.90;;;;;;5009440;28;20200;-90
2021/09/13 06:31:54;;;;;;;19.43;12.33;;;14.10;99.90;;;;;;5007168;28;20201;-88
2021/09/13 06:34:21;;;;;;;17.87;12.67;;;14.20;99.90;;;;;;5008172;28;20211;-88
2021/09/13 06:36:48;;;;;;;19.10;12.17;;;14.30;99.90;;;;;;5002043;28;20234;-88
2021/09/13 06:39:15;;;;;;;17.27;12.67;;;14.30;99.90;;;;;;5012000;28;20644;-89
2021/09/13 06:48:35;;;;;;;17.47;11.73;;;14.40;99.90;;;;;;5020782;22;20342;-81
2021/09/13 06:51:02;;;;;;;17.57;11.50;;;14.50;99.90;;;;;;5029045;28;20235;-81
2021/09/13 06:53:29;;;;;;;16.73;11.27;;;14.60;99.90;;;;;;5025952;28;20203;-81
2021/09/13 06:55:55;;;;;;;15.53;10.20;;;14.70;99.90;;;;;;5025678;28;20323;-81
2021/09/13 06:58:22;;;;;;;16.63;10.70;;;14.80;99.90;;;;;;5026482;28;20294;-81
2021/09/13 07:00:49;;;;;;;17.13;10.27;;;14.80;99.90;;;;;;5029059;28;20290;-81
2021/09/13 07:03:17;;;;;;;18.83;11.20;;;14.90;99.90;;;;;;5035960;28;20230;-81
2021/09/13 07:05:45;;;;;;;16.97;10.30;;;14.90;99.90;;;;;;5025862;28;20590;-81
2021/09/13 07:08:12;;;;;;;14.57;10.17;;;15.00;99.90;;;;;;5028946;28;20219;-82
2021/09/13 07:10:39;;;;;;;13.50;9.40;;;15.10;99.90;;;;;;5025337;28;20213;-81
2021/09/13 07:13:05;;;;;;;13.90;9.10;;;15.20;99.90;;;;;;5024571;28;20250;-81
2021/09/13 07:15:32;;;;;;;14.60;9.37;;;15.20;99.90;;;;;;5029311;28;20239;-81
2021/09/13 07:17:59;;;;;;;13.57;9.03;;;15.30;99.90;;;;;;5030321;28;20215;-81
2021/09/13 07:20:26;;;;;;;13.20;8.70;;;15.30;99.90;;;;;;5032914;28;20235;-81
2021/09/13 07:22:55;;;;;;;10.07;7.53;;;15.30;99.90;;;;;;5028661;28;20310;-81
2021/09/13 07:25:22;;;;;;;11.20;7.50;;;15.40;99.90;;;;;;5031217;28;20227;-82
2021/09/13 07:27:49;;;;;;;12.30;7.97;;;15.50;99.90;;;;;;5030684;28;20214;-81
2021/09/13 07:30:16;;;;;;;12.70;6.60;;;15.70;99.90;;;;;;5030606;28;20302;-81
2021/09/13 07:32:43;;;;;;;9.90;6.70;;;15.70;99.90;;;;;;5033026;28;20294;-81
2021/09/13 07:35:11;;;;;;;11.33;7.77;;;15.80;99.90;;;;;;5044915;28;20266;-81
2021/09/13 07:37:39;;;;;;;11.40;8.00;;;15.90;99.90;;;;;;5031232;28;20227;-81
2021/09/13 07:40:08;;;;;;;10.40;7.68;;;15.80;99.90;;;;;;5031384;28;20706;-80
2021/09/13 07:42:36;;;;;;;11.07;7.50;;;15.80;99.90;;;;;;5031935;28;20226;-81
2021/09/13 07:45:03;;;;;;;10.23;7.30;;;15.70;99.90;;;;;;5031165;28;20286;-81
2021/09/13 07:47:31;;;;;;;10.27;7.30;;;15.80;99.90;;;;;;5034405;28;20298;-81
2021/09/13 07:49:58;;;;;;;11.32;7.20;;;16.00;99.90;;;;;;5049925;28;20206;-81
2021/09/13 07:52:25;;;;;;;12.63;7.93;;;16.20;99.90;;;;;;5042992;28;20956;-81
2021/09/13 07:54:52;;;;;;;11.43;7.37;;;16.20;99.90;;;;;;5049907;28;20210;-81
2021/09/13 07:57:21;;;;;;;10.90;6.82;;;16.30;99.90;;;;;;5042642;28;20251;-81
2021/09/13 07:59:47;;;;;;;9.32;6.20;;;16.30;99.90;;;;;;5034765;28;20239;-81
2021/09/13 08:02:14;;;;;;;9.73;5.80;;;16.40;99.90;;;;;;5031801;28;20847;-81
2021/09/13 08:04:41;;;;;;;9.70;5.78;;;16.50;99.90;;;;;;5048582;28;20257;-81
2021/09/13 08:07:08;;;;;;;8.25;5.93;;;16.50;99.90;;;;;;5048222;28;20416;-81
2021/09/13 08:09:35;;;;;;;8.10;5.85;;;16.50;99.90;;;;;;5035592;28;20627;-80
2021/09/13 08:12:02;;;;;;;9.25;5.47;;;16.60;99.90;;;;;;5033952;28;20213;-81
2021/09/13 08:14:30;;;;;;;10.02;5.70;;;16.70;99.90;;;;;;5029606;28;20203;-81
2021/09/13 08:16:57;;;;;;;9.60;5.85;;;16.90;99.90;;;;;;5025421;28;20926;-81
2021/09/13 08:19:24;;;;;;;9.63;5.80;;;17.10;99.90;;;;;;5028116;28;20200;-80
2021/09/13 08:21:51;;;;;;;7.97;5.40;;;17.10;99.90;;;;;;5028620;28;20207;-81
2021/09/13 08:24:18;;;;;;;8.25;5.25;;;17.20;99.90;;;;;;5035643;28;20283;-81
2021/09/13 08:26:45;;;;;;;11.20;5.78;;;17.50;99.90;;;;;;5047141;28;20226;-81
2021/09/13 08:29:15;;;;;;;6.65;4.75;;;17.50;99.90;;;;;;5030583;28;20207;-81
2021/09/13 08:31:43;;;;;;;6.30;4.82;;;17.70;99.90;;;;;;5045245;28;20218;-81
2021/09/13 08:34:11;;;;;;;8.52;4.72;;;17.60;99.90;;;;;;5047454;28;20221;-81
2021/09/13 08:36:38;;;;;;;6.53;4.10;;;17.70;99.90;;;;;;5047624;28;20229;-82
2021/09/13 08:39:05;;;;;;;6.18;3.63;;;17.70;99.90;;;;;;5031583;28;20803;-81
2021/09/13 08:41:32;;;;;;;8.35;3.95;;;17.70;99.90;;;;;;5024631;28;20317;-81
2021/09/13 08:44:01;;;;;;;6.55;3.47;;;17.90;99.90;;;;;;5021600;28;20595;-81
2021/09/13 08:46:37;;;;;;;4.03;3.38;;;17.70;99.90;;;;;;5018178;28;20255;-81
2021/09/13 08:49:07;;;;;;;5.60;3.45;;;17.70;99.90;;;;;;5021902;28;20277;-81
2021/09/13 08:51:34;;;;;;;6.38;3.30;;;17.90;99.90;;;;;;5022013;28;20208;-82
2021/09/13 08:54:04;;;;;;;6.18;3.22;;;18.00;99.90;;;;;;5022260;28;20208;-81
2021/09/13 08:56:38;;;;;;;5.25;3.28;;;17.90;99.90;;;;;;5027134;28;20227;-81
2021/09/13 08:59:06;;;;;;;4.93;3.33;;;17.90;99.90;;;;;;5022924;28;20589;-81
2021/09/13 09:01:33;;;;;;;6.75;3.60;;;18.00;99.90;;;;;;5023524;28;20216;-82
2021/09/13 09:04:03;;;;;;;4.03;3.15;;;18.00;99.90;;;;;;5018685;28;20711;-81
2021/09/13 09:06:35;;;;;;;5.10;3.65;;;18.20;99.90;;;;;;5023728;28;20588;-81
2021/09/13 09:09:05;;;;;;;7.07;3.55;;;18.20;99.90;;;;;;5020569;28;20285;-82
2021/09/13 09:11:53;;;;;;;4.82;3.30;;;18.20;99.90;;;;;;5023260;28;20237;-82
2021/09/13 09:14:26;;;;;;;4.78;3.20;;;18.10;99.90;;;;;;5019439;28;20203;-81
2021/09/13 09:16:56;;;;;;;5.15;3.83;;;18.10;99.90;;;;;;5017031;28;20273;-82
2021/09/13 09:19:24;;;;;;;6.20;3.30;;;18.20;99.90;;;;;;5020135;28;20212;-82
2021/09/13 09:21:52;;;;;;;5.15;3.22;;;18.30;99.90;;;;;;5018934;28;20212;-82
2021/09/13 09:24:19;;;;;;;5.97;3.33;;;18.60;99.90;;;;;;5024680;28;20310;-82
2021/09/13 09:27:02;;;;;;;5.10;3.20;;;18.70;99.90;;;;;;5017723;28;20675;-81
2021/09/13 09:29:30;;;;;;;4.47;3.50;;;19.00;99.90;;;;;;5017313;28;20207;-81
2021/09/13 09:31:59;;;;;;;7.47;3.13;;;19.10;99.90;;;;;;5030172;28;20214;-81
2021/09/13 09:34:28;;;;;;;5.53;3.10;;;19.20;99.90;;;;;;5030849;28;20664;-82
2021/09/13 09:37:09;;;;;;;4.60;2.80;;;18.80;99.90;;;;;;5019959;28;20219;-82
2021/09/13 09:39:39;;;;;;;4.70;3.08;;;19.10;99.90;;;;;;5028051;28;20200;-82
2021/09/13 09:42:07;;;;;;;7.65;3.55;;;19.00;99.90;;;;;;5030323;28;20515;-81
2021/09/13 09:44:34;;;;;;;4.10;3.42;;;18.90;99.90;;;;;;5026602;28;20265;-82
2021/09/13 09:47:04;;;;;;;6.68;3.60;;;18.70;99.90;;;;;;5022390;28;20308;-82
2021/09/13 09:49:42;;;;;;;10.15;4.45;;;18.40;99.90;;;;;;5024552;28;20247;-82
2021/09/13 09:52:10;;;;;;;5.80;3.35;;;18.10;99.90;;;;;;5020976;28;20887;-82
2021/09/13 09:54:37;;;;;;;7.22;4.30;;;18.00;99.90;;;;;;5014212;28;20276;-82
2021/09/13 09:57:06;;;;;;;8.77;4.38;;;18.00;99.90;;;;;;5017735;28;20247;-82
2021/09/13 09:59:35;;;;;;;6.53;4.10;;;18.10;99.90;;;;;;5024674;28;20204;-82
2021/09/13 10:02:12;;;;;;;7.65;3.72;;;18.00;99.90;;;;;;5015628;28;20249;-82
2021/09/13 10:04:41;;;;;;;8.77;3.63;;;18.10;99.90;;;;;;5030914;28;20247;-82
2021/09/13 10:07:13;;;;;;;9.18;3.70;;;18.10;99.90;;;;;;5018115;28;20231;-82
2021/09/13 10:09:41;;;;;;;8.80;3.38;;;18.10;99.90;;;;;;5020066;28;20585;-82
2021/09/13 10:12:08;;;;;;;7.68;3.42;;;18.30;99.90;;;;;;5017842;28;20242;-81
2021/09/13 10:14:35;;;;;;;5.78;3.70;;;18.20;99.90;;;;;;5017957;28;20219;-82
2021/09/13 10:17:04;;;;;;;6.55;3.63;;;18.20;99.90;;;;;;5022365;28;20224;-82
2021/09/13 10:19:32;;;;;;;8.95;3.85;;;18.30;99.90;;;;;;5023725;28;20287;-82
2021/09/13 10:21:59;;;;;;;5.97;3.58;;;18.40;99.90;;;;;;5027586;28;20668;-82
2021/09/13 10:24:31;;;;;;;11.40;3.75;;;18.50;99.90;;;;;;5040484;28;20254;-82
2021/09/13 10:27:01;;;;;;;7.82;4.10;;;18.70;99.90;;;;;;5033700;28;20325;-82
2021/09/13 10:29:29;;;;;;;6.85;3.63;;;18.60;99.90;;;;;;5027063;28;20580;-82
2021/09/13 10:32:05;;;;;;;7.70;3.67;;;18.70;99.90;;;;;;5025155;28;20314;-82
2021/09/13 10:34:34;;;;;;;6.13;3.38;;;18.70;99.90;;;;;;5025713;28;21024;-82
2021/09/13 10:37:07;;;;;;;5.20;3.60;;;18.90;99.90;;;;;;5014237;28;20224;-81
2021/09/13 10:40:01;;;;;;;6.70;3.58;;;19.00;99.90;;;;;;5025146;28;20314;-81
2021/09/13 10:42:30;;;;;;;6.43;4.07;;;18.70;99.90;;;;;;5022280;28;20242;-82
2021/09/13 10:45:14;;;;;;;5.72;3.65;;;18.80;99.90;;;;;;5023125;28;20303;-82
2021/09/13 10:47:42;;;;;;;7.13;4.35;;;19.00;99.90;;;;;;5021031;28;20271;-82
2021/09/13 10:50:25;;;;;;;7.25;4.68;;;18.90;99.90;;;;;;5030815;28;20651;-82
2021/09/13 10:52:52;;;;;;;8.73;5.07;;;18.70;99.90;;;;;;5025031;28;20303;-82
2021/09/13 10:55:33;;;;;;;10.73;5.47;;;18.50;99.90;;;;;;5023079;28;20254;-82
2021/09/13 10:58:10;;;;;;;8.90;4.65;;;18.90;99.90;;;;;;5024577;28;20688;-82
2021/09/13 11:00:56;;;;;;;7.57;4.35;;;19.20;99.90;;;;;;5023610;28;20219;-82
2021/09/13 11:03:44;;;;;;;7.63;4.78;;;19.20;99.90;;;;;;5021637;28;20308;-82
2021/09/13 11:06:38;;;;;;;7.57;4.97;;;19.20;99.90;;;;;;5024000;28;20231;-82
2021/09/13 11:09:08;;;;;;;6.13;4.45;;;19.00;99.90;;;;;;5028597;28;20793;-82
2021/09/13 11:11:38;;;;;;;9.88;5.28;;;18.70;99.90;;;;;;5029323;28;20222;-82
2021/09/13 11:14:07;;;;;;;6.72;4.68;;;18.60;99.90;;;;;;5039231;28;20210;-82
2021/09/13 11:16:35;;;;;;;8.10;4.55;;;18.60;99.90;;;;;;5035344;28;20778;-82
2021/09/13 11:19:09;;;;;;;6.00;4.18;;;18.70;99.90;;;;;;5025362;28;20213;-82
2021/09/13 11:21:37;;;;;;;6.85;4.55;;;18.90;99.90;;;;;;5027710;28;20203;-82
2021/09/13 11:24:07;;;;;;;7.32;4.63;;;18.80;99.90;;;;;;5027660;28;20703;-82
2021/09/13 11:26:38;;;;;;;7.88;4.78;;;18.90;99.90;;;;;;5028556;28;20228;-82
2021/09/13 11:29:06;;;;;;;7.35;3.90;;;19.10;99.90;;;;;;5029064;28;20238;-82
2021/09/13 11:31:37;;;;;;;5.95;4.35;;;19.50;99.90;;;;;;5029576;28;20733;-82
2021/09/13 11:34:07;;;;;;;8.73;4.30;;;19.60;99.90;;;;;;5028454;28;20207;-83
2021/09/13 11:36:34;;;;;;;10.68;5.38;;;20.20;99.90;;;;;;5027185;28;20263;-82
2021/09/13 11:39:04;;;;;;;8.68;5.50;;;20.30;99.90;;;;;;5029393;28;20254;-82
2021/09/13 11:41:32;;;;;;;10.32;6.28;;;20.70;99.90;;;;;;5028515;28;20277;-83
2021/09/13 11:44:08;;;;;;;13.52;7.30;;;20.30;99.90;;;;;;5013941;28;20223;-82
2021/09/13 11:46:52;;;;;;;15.95;8.70;;;20.00;99.90;;;;;;5024772;28;20225;-82
2021/09/13 11:49:21;;;;;;;15.50;8.18;;;19.50;99.90;;;;;;5024801;28;20462;-82
2021/09/13 11:52:22;;;;;;;17.63;9.00;;;19.40;99.90;;;;;;5030893;28;20221;-82
2021/09/13 11:54:54;;;;;;;16.50;9.40;;;19.40;99.90;;;;;;4966354;28;20209;-81
2021/09/13 11:57:26;;;;;;;14.75;8.05;;;19.40;99.90;;;;;;5016090;28;20311;-81
2021/09/13 11:59:56;;;;;;;13.73;8.88;;;19.50;99.90;;;;;;5026895;28;20204;-79
2021/09/13 12:02:24;;;;;;;14.60;8.77;;;19.30;99.90;;;;;;5027442;28;20354;-79
2021/09/13 12:04:52;;;;;;;14.48;7.50;;;19.60;99.90;;;;;;5025859;28;20215;-79
2021/09/13 12:07:19;;;;;;;12.07;7.65;;;19.50;99.90;;;;;;5040503;28;20593;-79
2021/09/13 12:09:49;;;;;;;12.50;8.25;;;19.60;99.90;;;;;;5032789;28;20211;-79
2021/09/13 12:12:20;;;;;;;13.98;8.43;;;19.40;99.90;;;;;;5024870;28;20211;-79
2021/09/13 12:14:48;;;;;;;14.05;8.02;;;19.40;99.90;;;;;;5032913;28;20338;-79
2021/09/13 12:17:18;;;;;;;12.60;7.65;;;19.40;99.90;;;;;;5024398;28;20314;-80
2021/09/13 12:19:47;;;;;;;11.88;7.15;;;19.60;99.90;;;;;;5024170;28;20271;-80
2021/09/13 12:22:15;;;;;;;12.00;6.97;;;19.60;99.90;;;;;;5027839;28;20219;-79
2021/09/13 12:24:43;;;;;;;10.45;7.22;;;19.90;99.90;;;;;;5023542;28;20619;-80
2021/09/13 12:27:20;;;;;;;12.90;7.90;;;19.90;99.90;;;;;;5025106;28;20667;-79
2021/09/13 12:30:03;;;;;;;10.98;6.90;;;19.70;99.90;;;;;;5024974;28;20235;-79
2021/09/13 12:32:33;;;;;;;13.32;7.15;;;19.70;99.90;;;;;;5026872;28;20291;-79
2021/09/13 12:35:02;;;;;;;10.73;6.82;;;19.90;99.90;;;;;;5022017;28;20199;-80
2021/09/13 12:37:33;;;;;;;14.63;6.60;;;19.90;99.90;;;;;;5035093;28;20211;-80
2021/09/13 12:40:02;;;;;;;8.25;5.20;;;19.90;99.90;;;;;;5025947;28;20269;-79
2021/09/13 12:42:29;;;;;;;6.93;4.82;;;20.20;99.90;;;;;;5025400;28;20203;-79
2021/09/13 12:44:59;;;;;;;11.23;5.10;;;20.30;99.90;;;;;;5024712;28;20593;-80
2021/09/13 12:47:26;;;;;;;7.53;5.57;;;20.30;99.90;;;;;;5026368;28;20208;-82
2021/09/13 12:49:54;;;;;;;8.60;5.32;;;20.40;99.90;;;;;;5011041;28;20211;-79